Time;durP1;ratioP1;P1;durP2;ratioP2;P2;SDS_P1;SDS_P2;PMS_P1;PMS_P2;Temp;Humidity;BMP_temperature;BMP_pressure;BME280_temperature;BME280_humidity;BME280_pressure;Samples;Min_cycle;Max_cycle;Signal;HPM_P1;HPM_P2
2020/12/22 00:01:54;;;;;;;66.95;31.20;;;;;;;4.20;85.85;96117.75;5088880;28;20102;-69
2020/12/22 00:04:20;;;;;;;103.55;44.03;;;;;;;4.21;85.80;96111.63;5087450;28;20520;-69
2020/12/22 00:06:47;;;;;;;88.68;41.92;;;;;;;4.07;86.17;96114.81;5088310;28;20409;-69
2020/12/22 00:09:13;;;;;;;73.55;36.72;;;;;;;4.06;86.56;96126.13;5088753;28;20094;-69
2020/12/22 00:11:39;;;;;;;81.43;39.67;;;;;;;4.00;86.27;96115.47;5087417;28;20040;-69
2020/12/22 00:14:06;;;;;;;77.28;41.88;;;;;;;4.19;86.19;96134.19;5088439;28;20040;-69
2020/12/22 00:16:34;;;;;;;67.47;36.42;;;;;;;4.16;85.99;96125.00;5087160;28;20044;-69
2020/12/22 00:19:01;;;;;;;62.45;33.80;;;;;;;4.18;85.87;96117.13;5087358;28;20497;-69
2020/12/22 00:21:32;;;;;;;76.65;39.85;;;;;;;4.28;85.67;96130.66;5088060;28;20042;-69
2020/12/22 00:23:58;;;;;;;61.97;31.98;;;;;;;4.26;85.79;96134.38;5086327;28;20039;-69
2020/12/22 00:26:25;;;;;;;90.25;45.50;;;;;;;4.14;86.06;96126.13;5088244;28;20059;-69
2020/12/22 00:28:52;;;;;;;114.80;51.42;;;;;;;4.22;86.26;96139.84;5086793;28;20036;-69
2020/12/22 00:31:19;;;;;;;127.65;58.63;;;;;;;4.23;86.38;96145.78;5087466;28;20040;-69
2020/12/22 00:33:45;;;;;;;134.05;63.95;;;;;;;4.18;86.20;96133.38;5086824;28;20493;-69
2020/12/22 00:36:12;;;;;;;92.18;44.55;;;;;;;4.13;86.46;96142.56;5087927;28;20039;-69
2020/12/22 00:38:38;;;;;;;47.55;22.65;;;;;;;4.08;86.40;96139.66;5088177;28;20089;-69
2020/12/22 00:41:05;;;;;;;54.08;27.15;;;;;;;4.13;86.32;96140.00;5086806;28;20040;-69
2020/12/22 00:43:31;;;;;;;50.20;27.17;;;;;;;4.11;86.36;96142.72;5085935;28;20221;-69
2020/12/22 00:45:57;;;;;;;42.25;22.58;;;;;;;4.14;86.52;96136.44;5086516;28;20048;-69
2020/12/22 00:48:27;;;;;;;42.22;22.00;;;;;;;4.09;86.37;96118.03;5085065;28;20048;-69
2020/12/22 00:50:54;;;;;;;40.15;22.85;;;;;;;4.22;86.29;96139.84;5102181;28;20433;-69
2020/12/22 00:53:20;;;;;;;41.13;24.23;;;;;;;4.13;86.83;96134.84;5086749;28;20028;-70
2020/12/22 00:55:47;;;;;;;44.15;23.67;;;;;;;4.16;86.22;96121.59;5086363;28;20052;-69
2020/12/22 00:58:13;;;;;;;57.78;30.75;;;;;;;4.13;86.27;96124.53;5086650;28;20047;-69
2020/12/22 01:00:40;;;;;;;55.13;31.13;;;;;;;4.17;86.38;96136.13;5086486;28;20039;-69
2020/12/22 01:03:07;;;;;;;35.28;20.27;;;;;;;4.13;86.22;96129.69;5087299;28;20040;-69
2020/12/22 01:05:33;;;;;;;34.72;19.38;;;;;;;4.10;86.38;96137.72;5086447;28;20047;-69
2020/12/22 01:07:59;;;;;;;28.42;17.42;;;;;;;4.04;86.53;96130.63;5069764;28;20867;-70
2020/12/22 01:10:26;;;;;;;39.10;20.42;;;;;;;4.02;86.35;96123.84;5086695;28;20554;-69
2020/12/22 01:12:53;;;;;;;82.65;40.08;;;;;;;4.12;86.62;96139.16;5086887;28;20522;-70
2020/12/22 01:15:21;;;;;;;68.78;33.17;;;;;;;4.11;86.80;96142.72;5086373;28;20035;-69
2020/12/22 01:17:47;;;;;;;51.95;28.95;;;;;;;4.01;86.68;96145.44;5086869;28;20044;-69
2020/12/22 01:20:14;;;;;;;38.75;19.80;;;;;;;4.01;86.82;96134.31;5087095;28;20040;-69
2020/12/22 01:22:40;;;;;;;44.55;22.90;;;;;;;3.81;87.32;96118.31;5087394;28;20425;-69
2020/12/22 01:25:07;;;;;;;44.85;23.25;;;;;;;3.53;89.25;96122.88;5084767;28;20055;-69
2020/12/22 01:27:33;;;;;;;55.55;27.98;;;;;;;3.19;91.02;96108.25;5085727;28;20055;-69
2020/12/22 01:29:59;;;;;;;36.85;21.85;;;;;;;3.09;92.46;96126.38;5084577;28;20048;-69
2020/12/22 01:32:25;;;;;;;39.53;24.27;;;;;;;3.03;92.83;96127.00;5084049;28;20048;-70
2020/12/22 01:34:52;;;;;;;47.08;25.65;;;;;;;3.12;92.49;96133.81;5085863;28;20050;-69
2020/12/22 01:37:18;;;;;;;43.83;23.80;;;;;;;3.34;91.77;96129.09;5085865;28;20048;-69
2020/12/22 01:39:45;;;;;;;58.58;30.10;;;;;;;3.30;91.44;96122.63;5086941;28;20036;-69
2020/12/22 01:42:14;;;;;;;63.38;33.05;;;;;;;3.44;91.44;96134.94;5085493;28;20096;-69
2020/12/22 01:44:40;;;;;;;42.55;24.77;;;;;;;3.50;91.12;96129.16;5087019;28;20039;-70
2020/12/22 01:47:08;;;;;;;42.78;23.80;;;;;;;3.61;90.13;96141.75;5086664;28;20047;-69
2020/12/22 01:49:35;;;;;;;42.85;23.98;;;;;;;3.59;89.71;96128.22;5085055;28;20036;-69
2020/12/22 01:52:02;;;;;;;48.70;21.00;;;;;;;3.69;89.12;96135.03;5086711;28;20072;-69
2020/12/22 01:54:30;;;;;;;33.97;19.02;;;;;;;3.59;89.24;96128.22;5084582;28;20120;-69
2020/12/22 01:56:57;;;;;;;35.25;19.33;;;;;;;3.62;89.38;96122.78;5085925;28;20077;-69
2020/12/22 01:59:24;;;;;;;34.72;18.95;;;;;;;3.64;89.56;96126.00;5086217;28;20481;-69
2020/12/22 02:01:52;;;;;;;33.75;20.25;;;;;;;3.61;89.71;96126.31;5087010;28;20496;-69
2020/12/22 02:04:20;;;;;;;37.40;21.08;;;;;;;3.62;90.00;96122.78;5085957;28;20140;-69
2020/12/22 02:06:46;;;;;;;35.88;18.45;;;;;;;3.68;90.08;96121.34;5086311;28;20432;-69
2020/12/22 02:09:13;;;;;;;32.22;18.25;;;;;;;3.77;89.84;96125.56;5084663;28;20398;-69
2020/12/22 02:11:40;;;;;;;37.50;20.23;;;;;;;3.87;89.59;96125.44;5086488;28;20410;-69
2020/12/22 02:14:09;;;;;;;35.33;19.58;;;;;;;3.86;89.32;96113.50;5084551;28;20497;-69
2020/12/22 02:16:37;;;;;;;32.58;18.13;;;;;;;3.84;89.18;96110.28;5085550;28;20043;-69
2020/12/22 02:19:19;;;;;;;28.63;16.73;;;;;;;4.01;88.74;96114.47;5086485;28;20055;-71
2020/12/22 02:21:46;;;;;;;31.65;17.08;;;;;;;4.08;88.37;96111.28;5085146;28;20110;-69
2020/12/22 02:24:12;;;;;;;30.27;18.30;;;;;;;4.13;88.47;96114.22;5086607;28;20032;-70
2020/12/22 02:26:38;;;;;;;31.92;17.23;;;;;;;4.17;88.14;96115.50;5084791;28;20047;-70
2020/12/22 02:29:05;;;;;;;33.22;18.10;;;;;;;4.13;88.01;96109.06;5086564;28;20542;-69
2020/12/22 02:31:32;;;;;;;29.00;17.23;;;;;;;4.16;88.17;96103.56;5085270;28;20410;-69
2020/12/22 02:33:58;;;;;;;31.75;17.60;;;;;;;4.09;87.67;96077.63;5086251;28;20047;-69
2020/12/22 02:36:24;;;;;;;29.00;17.63;;;;;;;4.21;87.52;96106.47;5086393;28;20128;-69
2020/12/22 02:38:50;;;;;;;31.15;16.88;;;;;;;4.21;87.41;96103.88;5085334;28;20050;-69
2020/12/22 02:41:17;;;;;;;27.48;16.73;;;;;;;4.31;86.75;96101.97;5086344;28;20516;-69
2020/12/22 02:43:43;;;;;;;29.30;18.10;;;;;;;4.38;86.56;96102.94;5086182;28;20036;-70
2020/12/22 02:46:10;;;;;;;27.77;16.83;;;;;;;4.37;86.19;96106.47;5086192;28;20039;-69
2020/12/22 02:48:36;;;;;;;30.60;17.65;;;;;;;4.36;86.34;96099.72;5084836;28;20035;-69
2020/12/22 02:51:03;;;;;;;30.63;17.42;;;;;;;4.29;85.81;96093.59;5086395;28;20036;-69
2020/12/22 02:53:29;;;;;;;33.08;18.05;;;;;;;4.26;85.91;96104.22;5087654;28;20474;-69
2020/12/22 02:55:56;;;;;;;32.75;18.15;;;;;;;4.20;86.01;96099.72;5088198;28;20044;-69
2020/12/22 02:58:22;;;;;;;36.33;21.63;;;;;;;4.13;86.15;96083.25;5089880;28;20042;-69
2020/12/22 03:00:48;;;;;;;33.80;20.27;;;;;;;4.24;85.95;96095.84;5089917;28;20036;-69
2020/12/22 03:03:15;;;;;;;33.58;18.83;;;;;;;4.27;85.74;96100.69;5089387;28;20040;-70
2020/12/22 03:05:42;;;;;;;31.10;17.40;;;;;;;4.14;86.06;96084.88;5089712;28;20052;-69
2020/12/22 03:08:09;;;;;;;36.47;19.92;;;;;;;4.25;85.64;96092.31;5087147;28;20051;-69
2020/12/22 03:10:36;;;;;;;33.50;19.35;;;;;;;4.31;85.52;96098.59;5088132;28;20393;-69
2020/12/22 03:13:03;;;;;;;34.85;19.00;;;;;;;4.27;85.51;96100.69;5088611;28;20043;-69
2020/12/22 03:15:30;;;;;;;33.83;19.48;;;;;;;4.09;86.26;96098.25;5088089;28;20048;-69
2020/12/22 03:17:56;;;;;;;37.35;20.45;;;;;;;3.99;86.83;96093.22;5089319;28;20047;-70
2020/12/22 03:20:24;;;;;;;34.03;20.73;;;;;;;3.82;87.81;96096.75;5089543;28;20036;-69
2020/12/22 03:22:51;;;;;;;36.65;21.58;;;;;;;3.81;87.64;96084.81;5089386;28;20032;-69
2020/12/22 03:25:17;;;;;;;35.60;20.85;;;;;;;3.75;88.29;96080.31;5088740;28;20874;-69
2020/12/22 03:27:44;;;;;;;38.25;20.27;;;;;;;3.72;88.56;96065.16;5088603;28;20153;-69
2020/12/22 03:30:13;;;;;;;37.08;21.08;;;;;;;3.88;89.19;96083.22;5087777;28;20093;-69
2020/12/22 03:32:40;;;;;;;35.08;20.65;;;;;;;3.94;89.07;96080.03;5087535;28;20130;-69
2020/12/22 03:35:07;;;;;;;34.08;19.00;;;;;;;4.10;88.46;96078.41;5089363;28;20043;-70
2020/12/22 03:37:34;;;;;;;30.08;17.80;;;;;;;4.05;87.86;96065.19;5087496;28;20047;-69
2020/12/22 03:40:00;;;;;;;38.70;19.55;;;;;;;4.01;88.00;96082.75;5089080;28;20429;-70
2020/12/22 03:42:28;;;;;;;31.95;18.55;;;;;;;3.98;88.00;96081.31;5089061;28;20040;-69
2020/12/22 03:44:54;;;;;;;35.50;19.83;;;;;;;3.87;88.28;96083.38;5087732;28;20043;-70
2020/12/22 03:47:21;;;;;;;33.28;19.55;;;;;;;3.95;88.24;96076.47;5088644;28;20089;-69
2020/12/22 03:49:47;;;;;;;35.70;21.13;;;;;;;3.92;88.16;96081.94;5087571;28;20390;-70
2020/12/22 03:52:14;;;;;;;34.03;19.13;;;;;;;4.00;87.89;96079.38;5086939;28;20718;-70
2020/12/22 03:54:40;;;;;;;42.55;20.80;;;;;;;4.13;87.66;96078.09;5088533;28;20051;-69
2020/12/22 03:57:07;;;;;;;38.78;19.98;;;;;;;4.19;87.43;96082.63;5087737;28;20043;-69
2020/12/22 03:59:35;;;;;;;36.65;21.02;;;;;;;4.17;87.41;96079.41;5087664;28;20055;-69
2020/12/22 04:02:02;;;;;;;35.38;19.55;;;;;;;4.17;87.22;96076.81;5088578;28;20067;-69
2020/12/22 04:04:29;;;;;;;34.85;19.88;;;;;;;4.20;87.14;96081.66;5087621;28;20036;-69
2020/12/22 04:06:56;;;;;;;34.83;20.35;;;;;;;4.08;87.75;96077.78;5088119;28;20050;-69
2020/12/22 04:09:23;;;;;;;35.25;19.25;;;;;;;4.06;87.67;96071.97;5088502;28;20055;-70
2020/12/22 04:11:51;;;;;;;36.05;20.90;;;;;;;3.93;88.47;96069.88;5088457;28;20036;-70
2020/12/22 04:14:21;;;;;;;31.15;19.20;;;;;;;3.88;88.87;96065.19;5086995;28;20040;-69
2020/12/22 04:16:48;;;;;;;33.70;19.55;;;;;;;3.99;88.32;96071.78;5088008;28;20040;-69
2020/12/22 04:19:15;;;;;;;36.35;20.27;;;;;;;4.18;87.81;96075.88;5087947;28;20120;-69
2020/12/22 04:21:43;;;;;;;33.90;21.38;;;;;;;4.30;86.89;96073.75;5088262;28;20032;-69
2020/12/22 04:24:09;;;;;;;38.35;20.27;;;;;;;4.13;86.42;96062.63;5088405;28;20066;-69
2020/12/22 04:26:36;;;;;;;39.72;20.35;;;;;;;4.08;87.18;96065.69;5087728;28;20064;-70
2020/12/22 04:29:03;;;;;;;36.60;20.95;;;;;;;4.25;87.04;96084.56;5088049;28;20509;-69
2020/12/22 04:31:30;;;;;;;34.17;19.23;;;;;;;4.30;86.66;96084.88;5088200;28;20097;-69
2020/12/22 04:33:57;;;;;;;34.88;20.20;;;;;;;4.39;86.18;96078.78;5088104;28;20483;-69
2020/12/22 04:36:25;;;;;;;34.38;19.50;;;;;;;4.47;85.57;96084.91;5088192;28;20091;-69
2020/12/22 04:38:52;;;;;;;30.98;19.70;;;;;;;4.38;85.43;96079.72;5086828;28;20462;-69
2020/12/22 04:41:20;;;;;;;33.88;19.38;;;;;;;4.14;86.41;96069.38;5085354;28;20543;-69
2020/12/22 04:43:48;;;;;;;37.08;20.17;;;;;;;4.05;87.15;96080.66;5086403;28;20425;-69
2020/12/22 04:46:20;;;;;;;35.72;20.23;;;;;;;4.13;86.88;96084.06;5087583;28;20117;-69
2020/12/22 04:48:53;;;;;;;37.47;20.08;;;;;;;4.12;87.30;96097.91;5069764;28;20590;-70
2020/12/22 04:51:20;;;;;;;39.22;22.40;;;;;;;4.12;87.08;96094.53;5086648;28;20130;-69
2020/12/22 04:54:06;;;;;;;41.78;21.52;;;;;;;4.19;86.81;96088.56;5086248;28;20040;-69
2020/12/22 04:56:33;;;;;;;42.33;23.05;;;;;;;3.99;87.70;96088.06;5087338;28;20118;-69
2020/12/22 04:58:59;;;;;;;62.40;32.90;;;;;;;3.76;88.86;96087.06;5086700;28;20139;-69
2020/12/22 05:01:26;;;;;;;53.95;27.85;;;;;;;3.44;90.18;96078.28;5086329;28;20040;-69
2020/12/22 05:03:53;;;;;;;46.90;25.35;;;;;;;3.41;90.54;96091.47;5087528;28;20528;-69
2020/12/22 05:06:19;;;;;;;38.72;23.02;;;;;;;3.48;90.75;96092.44;5087465;28;20036;-69
2020/12/22 05:08:46;;;;;;;43.42;24.90;;;;;;;3.66;90.23;96086.41;5087327;28;20044;-69
2020/12/22 05:11:16;;;;;;;47.88;22.83;;;;;;;3.45;91.18;96090.97;5087175;28;20036;-70
2020/12/22 05:13:43;;;;;;;41.85;23.73;;;;;;;3.17;92.17;96079.25;5087217;28;20074;-69
2020/12/22 05:16:10;;;;;;;45.63;25.92;;;;;;;3.06;92.51;96080.34;5087167;28;20044;-69
2020/12/22 05:18:36;;;;;;;51.35;27.95;;;;;;;3.11;92.71;96090.97;5087215;28;20036;-69
2020/12/22 05:21:18;;;;;;;56.15;29.25;;;;;;;3.11;92.83;96088.41;5088354;28;20040;-69
2020/12/22 05:23:47;;;;;;;69.07;38.60;;;;;;;3.03;92.87;96070.38;5085564;28;20040;-69
2020/12/22 05:26:17;;;;;;;75.57;41.30;;;;;;;3.25;92.54;96090.41;5085486;28;20096;-69
2020/12/22 05:28:43;;;;;;;84.25;48.53;;;;;;;3.23;92.94;96087.19;5087341;28;20043;-69
2020/12/22 05:31:14;;;;;;;59.78;31.30;;;;;;;3.21;93.83;96089.13;5087360;28;20032;-69
2020/12/22 05:33:46;;;;;;;64.85;36.85;;;;;;;3.20;94.75;96087.47;5086996;28;20032;-69
2020/12/22 05:36:13;;;;;;;84.50;47.35;;;;;;;3.37;94.40;96097.88;5086061;28;20040;-69
2020/12/22 05:38:43;;;;;;;91.05;55.25;;;;;;;3.36;94.35;96098.84;5087010;28;20111;-70
2020/12/22 05:41:09;;;;;;;56.40;33.22;;;;;;;3.19;95.29;96103.13;5087202;28;20529;-70
2020/12/22 05:43:37;;;;;;;81.57;43.35;;;;;;;3.17;95.78;96100.69;5086849;28;20111;-69
2020/12/22 05:46:04;;;;;;;94.28;46.78;;;;;;;3.32;95.87;96094.97;5086824;28;20036;-69
2020/12/22 05:48:31;;;;;;;71.32;41.15;;;;;;;3.90;97.59;96094.16;5085383;28;20040;-70
2020/12/22 05:51:02;;;;;;;46.58;28.55;;;;;;;4.17;94.25;96100.03;5084102;28;20044;-69
2020/12/22 05:53:29;;;;;;;52.17;29.65;;;;;;;4.05;93.80;96085.81;5086634;28;20032;-69
2020/12/22 05:55:55;;;;;;;48.15;27.35;;;;;;;4.01;92.66;96101.59;5086806;28;20056;-69
2020/12/22 05:58:30;;;;;;;46.80;25.20;;;;;;;4.18;93.59;96091.34;5086827;28;20042;-69
2020/12/22 06:00:56;;;;;;;45.45;27.30;;;;;;;4.68;91.91;96107.59;5085765;28;20073;-69
2020/12/22 06:03:22;;;;;;;47.67;26.70;;;;;;;4.39;91.56;96102.00;5085375;28;20032;-69
2020/12/22 06:05:49;;;;;;;72.28;38.08;;;;;;;4.64;89.62;96096.00;5083668;28;20044;-69
2020/12/22 06:08:16;;;;;;;83.47;50.30;;;;;;;4.83;90.32;96094.88;5085605;28;20040;-69
2020/12/22 06:10:44;;;;;;;53.17;31.15;;;;;;;4.84;87.92;96101.63;5086652;28;20043;-70
2020/12/22 06:13:12;;;;;;;45.55;26.48;;;;;;;4.55;88.62;96092.63;5086438;28;20036;-70
2020/12/22 06:15:39;;;;;;;43.08;25.65;;;;;;;4.21;89.84;96093.56;5068197;28;20516;-69
2020/12/22 06:18:06;;;;;;;51.55;29.85;;;;;;;4.04;90.87;96099.69;5087968;28;20488;-75
2020/12/22 06:20:33;;;;;;;59.95;37.10;;;;;;;4.41;91.28;96086.31;5089005;28;20058;-75
2020/12/22 06:23:04;;;;;;;56.47;32.22;;;;;;;4.94;90.41;96097.09;5088016;28;20037;-76
2020/12/22 06:25:32;;;;;;;53.78;28.35;;;;;;;5.25;87.77;96093.81;5087095;28;20058;-76
2020/12/22 06:28:03;;;;;;;51.90;27.73;;;;;;;4.85;87.76;96100.66;5088335;28;20044;-75
2020/12/22 06:30:35;;;;;;;41.03;24.55;;;;;;;4.56;88.60;96095.03;5093933;28;20044;-76
2020/12/22 06:33:19;;;;;;;54.85;30.38;;;;;;;3.76;92.29;96097.34;5094256;28;20449;-75
2020/12/22 06:36:06;;;;;;;55.90;32.75;;;;;;;3.93;92.80;96088.72;5094739;28;20035;-75
2020/12/22 06:38:48;;;;;;;43.97;26.60;;;;;;;4.22;91.72;96097.78;5068993;28;20139;-75
2020/12/22 06:41:26;;;;;;;42.55;24.65;;;;;;;3.96;91.62;96093.56;5094392;28;20036;-75
2020/12/22 06:43:56;;;;;;;80.60;44.47;;;;;;;3.58;93.58;96095.72;5093140;28;20048;-76
2020/12/22 06:46:34;;;;;;;59.30;36.42;;;;;;;3.69;93.40;96092.03;5094951;28;20486;-76
2020/12/22 06:49:02;;;;;;;60.15;32.30;;;;;;;3.63;93.45;96093.44;5093263;28;20063;-75
2020/12/22 06:51:33;;;;;;;57.17;33.28;;;;;;;3.78;93.51;96095.44;5091899;28;20040;-76
2020/12/22 06:54:12;;;;;;;49.53;27.42;;;;;;;3.90;92.64;96078.72;5092315;28;20044;-75
2020/12/22 06:56:44;;;;;;;55.88;31.70;;;;;;;4.00;91.99;96084.53;5092391;28;20135;-77
2020/12/22 06:59:12;;;;;;;43.38;21.88;;;;;;;4.13;90.75;96075.53;5092666;28;20038;-76
2020/12/22 07:01:45;;;;;;;41.85;23.33;;;;;;;3.63;91.84;96083.16;5091281;28;20057;-76
2020/12/22 07:04:16;;;;;;;41.38;24.02;;;;;;;3.50;92.87;96087.94;5090510;28;20036;-76
2020/12/22 07:06:58;;;;;;;39.35;20.73;;;;;;;3.56;93.18;96092.47;5091063;28;20040;-76
2020/12/22 07:09:33;;;;;;;48.47;27.58;;;;;;;3.41;93.63;96091.47;5093411;28;20044;-76
2020/12/22 07:12:08;;;;;;;34.25;21.30;;;;;;;3.41;94.62;96088.88;5094759;28;20040;-76
2020/12/22 07:14:49;;;;;;;35.83;23.00;;;;;;;3.32;94.88;96082.09;5092555;28;20077;-77
2020/12/22 07:17:21;;;;;;;37.03;20.65;;;;;;;3.31;95.60;96077.88;5094403;28;20040;-78
2020/12/22 07:19:49;;;;;;;41.30;21.55;;;;;;;3.28;95.32;96067.88;5094118;28;20046;-75
2020/12/22 07:22:33;;;;;;;37.90;21.15;;;;;;;3.26;95.57;96073.22;5092846;28;20040;-75
2020/12/22 07:25:01;;;;;;;39.25;20.85;;;;;;;3.38;95.41;96073.72;5092218;28;20543;-74
2020/12/22 07:27:28;;;;;;;37.88;22.70;;;;;;;3.27;95.69;96061.94;5091886;28;20040;-76
2020/12/22 07:29:54;;;;;;;46.42;23.65;;;;;;;3.38;95.38;96073.72;5093325;28;20055;-74
2020/12/22 07:32:23;;;;;;;46.17;25.58;;;;;;;3.40;95.86;96071.81;5093086;28;20044;-72
2020/12/22 07:34:49;;;;;;;47.42;24.98;;;;;;;3.37;94.54;96069.56;5091413;28;20040;-76
2020/12/22 07:37:17;;;;;;;90.05;41.83;;;;;;;3.31;94.81;96077.88;5092122;28;20069;-75
2020/12/22 07:39:43;;;;;;;62.63;36.03;;;;;;;3.43;95.47;96077.44;5091239;28;20119;-75
2020/12/22 07:42:16;;;;;;;52.08;29.88;;;;;;;3.44;94.55;96076.50;5091422;28;20044;-75
2020/12/22 07:44:44;;;;;;;58.60;28.95;;;;;;;3.37;94.02;96066.97;5093142;28;20036;-75
2020/12/22 07:47:12;;;;;;;71.22;35.42;;;;;;;3.43;94.23;96066.34;5089329;28;20119;-75
2020/12/22 07:49:39;;;;;;;54.33;29.23;;;;;;;3.40;94.29;96066.66;5092015;28;20036;-76
2020/12/22 07:52:19;;;;;;;51.00;27.00;;;;;;;3.52;94.05;96067.97;5089619;28;20040;-75
2020/12/22 07:55:07;;;;;;;64.38;31.52;;;;;;;3.60;93.03;96072.34;5093572;28;20038;-75
2020/12/22 07:57:38;;;;;;;66.30;29.88;;;;;;;3.62;92.55;96076.41;5093304;28;20046;-77
2020/12/22 08:00:09;;;;;;;80.38;31.45;;;;;;;3.78;92.85;96070.47;5093208;28;20054;-75
2020/12/22 08:02:35;;;;;;;330.33;90.30;;;;;;;3.70;92.31;96072.22;5092468;28;20545;-75
2020/12/22 08:05:09;;;;;;;1999.90;827.65;;;;;;;3.82;91.92;96070.97;5093263;28;20032;-75
2020/12/22 08:07:36;;;;;;;660.08;401.08;;;;;;;3.86;91.60;96081.78;5092081;28;20055;-75
2020/12/22 08:10:12;;;;;;;137.13;78.25;;;;;;;3.99;91.24;96079.53;5092364;28;20454;-75
2020/12/22 08:12:39;;;;;;;144.27;105.13;;;;;;;4.11;90.76;96085.19;5093224;28;20048;-75
2020/12/22 08:15:07;;;;;;;316.02;283.13;;;;;;;4.07;89.99;96083.88;5093224;28;20044;-74
2020/12/22 08:17:45;;;;;;;72.88;37.60;;;;;;;4.02;88.89;96068.91;5094734;28;20528;-75
2020/12/22 08:20:13;;;;;;;56.35;28.55;;;;;;;4.09;89.87;96066.47;5093213;28;20062;-75
2020/12/22 08:22:42;;;;;;;56.53;27.17;;;;;;;4.26;89.26;96072.47;5093137;28;20044;-75
2020/12/22 08:25:10;;;;;;;58.38;27.60;;;;;;;4.43;88.82;96083.59;5093176;28;20073;-75
2020/12/22 08:27:37;;;;;;;69.00;37.20;;;;;;;4.75;89.48;96057.78;5092811;28;20524;-74
2020/12/22 08:30:20;;;;;;;59.00;30.65;;;;;;;4.89;87.74;96070.97;5093023;28;20054;-75
2020/12/22 08:32:47;;;;;;;64.30;30.00;;;;;;;5.17;87.18;96071.38;5092981;28;20040;-74
2020/12/22 08:35:20;;;;;;;51.05;29.15;;;;;;;4.94;85.71;96068.72;5091673;28;20091;-75
2020/12/22 08:37:46;;;;;;;61.80;31.60;;;;;;;5.07;86.84;96056.06;5091725;28;20044;-75
2020/12/22 08:40:45;;;;;;;63.28;32.67;;;;;;;5.41;84.39;96072.28;5091521;28;20426;-75
2020/12/22 08:43:11;;;;;;;46.17;25.55;;;;;;;4.93;85.33;96051.59;5080710;28;20101;-75
2020/12/22 08:45:41;;;;;;;47.85;23.67;;;;;;;5.23;84.84;96062.16;5092357;28;20154;-75
2020/12/22 08:48:08;;;;;;;44.58;22.20;;;;;;;5.02;84.29;96058.34;5092807;28;20047;-76
2020/12/22 08:50:50;;;;;;;40.35;22.67;;;;;;;4.68;85.00;96041.34;5091571;28;20050;-75
2020/12/22 08:53:37;;;;;;;42.40;22.60;;;;;;;4.56;85.54;96032.31;5091476;28;20127;-74
2020/12/22 08:56:08;;;;;;;37.67;19.25;;;;;;;4.72;86.29;96032.28;5091909;28;20142;-75
2020/12/22 08:58:50;;;;;;;38.63;21.77;;;;;;;4.37;86.27;96029.09;5092719;28;20429;-75
2020/12/22 09:01:17;;;;;;;37.35;20.15;;;;;;;4.62;85.17;96047.13;5092888;28;20123;-75
2020/12/22 09:03:52;;;;;;;35.88;18.60;;;;;;;5.12;84.35;96042.66;5090870;28;20047;-74
2020/12/22 09:06:19;;;;;;;;;;;;;;;5.00;82.59;96039.63;5092853;28;20497;-75
2020/12/22 09:08:46;;;;;;;25.13;14.25;;;;;;;5.08;82.75;96036.25;5092861;28;19924;-75
2020/12/22 09:11:20;;;;;;;27.48;13.82;;;;;;;5.26;81.16;96034.22;5091101;28;20072;-75
2020/12/22 09:13:57;;;;;;;20.10;11.07;;;;;;;5.23;80.37;96036.34;5092174;28;20099;-75
2020/12/22 09:16:23;;;;;;;19.90;11.57;;;;;;;5.25;80.10;96026.63;5092080;28;20044;-75
2020/12/22 09:19:03;;;;;;;23.65;13.68;;;;;;;5.09;80.39;96023.13;5092370;28;20040;-75
2020/12/22 09:21:30;;;;;;;28.80;15.98;;;;;;;5.50;80.00;96028.13;5092291;28;20044;-76
2020/12/22 09:23:56;;;;;;;33.47;17.63;;;;;;;5.41;78.90;96031.72;5091093;28;20070;-74
2020/12/22 09:26:22;;;;;;;31.42;18.45;;;;;;;5.62;78.60;96038.06;5091014;28;20056;-75
2020/12/22 09:28:48;;;;;;;28.70;16.02;;;;;;;5.70;77.74;96025.13;5092124;28;20048;-75
2020/12/22 09:32:10;;;;;;;32.88;16.17;;;;;;;5.97;76.69;96044.53;5090033;28;20050;-75
2020/12/22 09:34:39;;;;;;;22.65;13.07;;;;;;;6.10;75.98;96036.19;5069579;28;20049;-74
2020/12/22 09:37:07;;;;;;;21.25;11.57;;;;;;;6.17;75.46;96029.34;5099359;28;20048;-75
2020/12/22 09:39:36;;;;;;;23.17;12.90;;;;;;;6.06;75.20;96034.94;5090354;28;20047;-74
2020/12/22 09:42:03;;;;;;;26.10;13.90;;;;;;;5.85;75.82;96033.75;5092006;28;20087;-74
2020/12/22 09:44:29;;;;;;;39.55;18.67;;;;;;;5.79;75.80;96018.91;5092600;28;20482;-75
2020/12/22 09:46:57;;;;;;;26.88;14.55;;;;;;;6.06;75.19;96029.75;5091939;28;20044;-75
2020/12/22 09:49:25;;;;;;;25.38;14.52;;;;;;;5.96;75.24;96034.34;5091388;28;20048;-74
2020/12/22 09:51:52;;;;;;;34.67;17.95;;;;;;;5.93;75.84;96030.31;5090520;28;20052;-75
2020/12/22 09:54:20;;;;;;;38.55;22.50;;;;;;;5.97;76.57;96026.44;5090568;28;20482;-74
2020/12/22 09:56:48;;;;;;;25.42;13.40;;;;;;;5.99;75.90;96031.44;5091334;28;20048;-74
2020/12/22 09:59:16;;;;;;;35.15;19.35;;;;;;;6.22;78.86;96034.81;5089288;28;20131;-73
2020/12/22 10:01:42;;;;;;;40.58;21.73;;;;;;;6.13;75.71;96020.34;5091808;28;20417;-73
2020/12/22 10:04:10;;;;;;;34.33;19.30;;;;;;;6.21;75.17;96025.47;5095829;28;20075;-73
2020/12/22 10:06:37;;;;;;;24.88;15.13;;;;;;;6.23;74.95;96028.66;5094423;28;20039;-73
2020/12/22 10:09:03;;;;;;;27.10;14.60;;;;;;;6.25;75.14;96029.31;5095012;28;20522;-73
2020/12/22 10:11:32;;;;;;;25.85;14.68;;;;;;;6.15;75.44;96033.09;5095842;28;20424;-73
2020/12/22 10:14:02;;;;;;;31.27;15.98;;;;;;;6.10;75.82;96025.84;5095120;28;20550;-73
2020/12/22 10:16:29;;;;;;;30.67;18.77;;;;;;;6.13;75.39;96025.50;5089009;28;20059;-73
2020/12/22 10:18:55;;;;;;;32.83;19.60;;;;;;;6.22;75.76;96029.63;5075400;28;20044;-73
2020/12/22 10:21:22;;;;;;;44.20;21.70;;;;;;;6.05;76.08;96008.28;5075406;28;20436;-73
2020/12/22 10:23:49;;;;;;;31.75;16.73;;;;;;;6.20;74.42;96016.06;5075748;28;20041;-73
2020/12/22 10:26:20;;;;;;;32.58;17.60;;;;;;;5.97;76.44;96012.69;5075173;28;20040;-73
2020/12/22 10:28:48;;;;;;;29.67;16.60;;;;;;;6.02;76.42;95997.47;5075444;28;20044;-73
2020/12/22 10:31:17;;;;;;;36.33;19.33;;;;;;;5.87;77.60;96011.13;5075209;28;20119;-73
2020/12/22 10:33:48;;;;;;;33.33;19.95;;;;;;;6.06;76.42;95999.53;5074869;28;20167;-73
2020/12/22 10:36:17;;;;;;;35.78;17.58;;;;;;;6.17;75.93;96000.91;5075989;28;20438;-73
2020/12/22 10:38:55;;;;;;;31.85;18.02;;;;;;;6.31;75.35;95996.75;5089385;28;20040;-72
2020/12/22 10:41:22;;;;;;;47.95;19.20;;;;;;;6.40;75.58;95987.13;5095727;28;20390;-73
2020/12/22 10:43:49;;;;;;;29.27;17.00;;;;;;;6.53;76.70;95989.91;5095220;28;20036;-74
2020/12/22 10:50:09;;;;;;;34.90;16.85;;;;;;;6.72;76.05;95987.78;5094319;28;20115;-73
2020/12/22 10:52:36;;;;;;;24.98;14.27;;;;;;;7.16;73.76;95974.00;5093799;28;20082;-73
2020/12/22 10:55:03;;;;;;;22.83;13.82;;;;;;;7.42;71.89;95974.31;5094662;28;20039;-73
2020/12/22 10:57:29;;;;;;;22.60;12.68;;;;;;;7.72;71.24;95974.22;5095683;28;20105;-74
2020/12/22 10:59:55;;;;;;;26.60;14.57;;;;;;;7.80;71.08;95971.50;5094286;28;20059;-74
2020/12/22 11:02:40;;;;;;;32.53;16.73;;;;;;;7.76;70.31;95953.91;5095026;28;20043;-73
2020/12/22 11:05:07;;;;;;;31.38;18.13;;;;;;;7.93;69.21;95964.84;5094804;28;20036;-74
2020/12/22 11:07:43;;;;;;;33.80;19.52;;;;;;;7.92;68.90;95963.22;5095014;28;20127;-73
2020/12/22 11:10:10;;;;;;;26.90;15.10;;;;;;;7.76;69.22;95965.09;5094181;28;20044;-73
2020/12/22 11:12:36;;;;;;;31.63;18.35;;;;;;;7.68;69.38;95952.25;5094522;28;20531;-73
2020/12/22 11:19:21;;;;;;;56.50;24.30;;;;;;;7.81;68.10;95951.56;5094809;28;20145;-74
2020/12/22 11:21:49;;;;;;;36.10;18.63;;;;;;;7.64;68.72;95940.63;5094568;28;20421;-74
2020/12/22 11:24:15;;;;;;;29.42;16.55;;;;;;;7.71;68.52;95951.88;5094887;28;20040;-73
2020/12/22 11:26:42;;;;;;;31.50;17.92;;;;;;;7.65;69.09;95952.59;5094573;28;20047;-73
2020/12/22 11:29:08;;;;;;;47.78;25.17;;;;;;;7.55;69.88;95927.00;5092911;28;20075;-73
2020/12/22 11:31:35;;;;;;;43.58;23.65;;;;;;;7.57;69.54;95939.78;5094235;28;20040;-74
2020/12/22 11:34:01;;;;;;;38.67;19.92;;;;;;;7.61;68.93;95941.78;5093752;28;20110;-73
2020/12/22 11:36:28;;;;;;;36.13;20.65;;;;;;;7.51;68.56;95940.50;5093807;28;20054;-73
2020/12/22 11:38:54;;;;;;;43.35;22.95;;;;;;;7.43;70.14;95923.28;5094627;28;20040;-74
2020/12/22 11:41:21;;;;;;;46.60;28.70;;;;;;;6.68;72.86;95915.66;5094272;28;20054;-73